Time;durP1;ratioP1;P1;durP2;ratioP2;P2;SDS_P1;SDS_P2;PMS_P1;PMS_P2;Temp;Humidity;BMP_temperature;BMP_pressure;BME280_temperature;BME280_humidity;BME280_pressure;Samples;Min_cycle;Max_cycle;Signal;HPM_P1;HPM_P2
2023/10/18 00:00:15;;;;;;;13.00;8.10;;;;;;;-148.15;100.00;61821.78;4993406;28;20484;-90
2023/10/18 00:02:44;;;;;;;10.98;7.78;;;;;;;-148.15;100.00;61821.78;5013749;28;20033;-90
2023/10/18 00:05:10;;;;;;;13.27;7.73;;;;;;;-148.15;100.00;61821.78;5019601;28;20029;-89
2023/10/18 00:07:36;;;;;;;13.53;7.90;;;;;;;-148.15;100.00;61821.78;5016551;28;20273;-90
2023/10/18 00:10:01;;;;;;;12.15;7.75;;;;;;;-148.15;100.00;61821.78;5011063;28;20028;-89
2023/10/18 00:12:27;;;;;;;12.07;7.77;;;;;;;-148.15;100.00;61821.78;5008820;28;20022;-89
2023/10/18 00:14:52;;;;;;;17.10;7.73;;;;;;;-148.15;100.00;61821.78;5007017;28;20022;-89
2023/10/18 00:17:17;;;;;;;13.95;7.80;;;;;;;-148.15;100.00;61821.78;5009402;28;20022;-89
2023/10/18 00:19:43;;;;;;;16.40;7.77;;;;;;;-148.15;100.00;61821.78;4992608;28;20026;-89
2023/10/18 00:22:09;;;;;;;13.10;7.95;;;;;;;-148.15;100.00;61821.78;5001250;28;20025;-90
2023/10/18 00:24:36;;;;;;;9.93;7.13;;;;;;;-148.15;100.00;61821.78;5009972;28;20120;-89
2023/10/18 00:27:01;;;;;;;12.85;7.53;;;;;;;-148.15;100.00;61821.78;5009186;28;20110;-90
2023/10/18 00:29:26;;;;;;;11.73;7.47;;;;;;;-148.15;100.00;61821.78;5010293;28;20022;-90
2023/10/18 00:31:52;;;;;;;13.90;8.02;;;;;;;-148.15;100.00;61821.78;5009902;28;20041;-89
2023/10/18 00:34:18;;;;;;;12.87;8.33;;;;;;;-148.15;100.00;61821.78;5007900;28;20032;-90
2023/10/18 00:36:43;;;;;;;10.52;7.07;;;;;;;-148.15;100.00;61821.78;5008607;28;20109;-89
2023/10/18 00:39:41;;;;;;;12.20;7.20;;;;;;;-148.15;100.00;61821.78;5009823;28;20424;-89
2023/10/18 00:44:52;;;;;;;12.40;7.07;;;;;;;-148.15;100.00;61821.78;5011944;28;20396;-89
2023/10/18 00:47:17;;;;;;;10.60;7.40;;;;;;;-148.15;100.00;61821.78;5013665;28;20038;-90
2023/10/18 00:49:43;;;;;;;9.63;6.93;;;;;;;-148.15;100.00;61821.78;5015030;28;20077;-90
2023/10/18 00:52:10;;;;;;;12.63;6.97;;;;;;;-148.15;100.00;61821.78;5012892;28;20028;-89
2023/10/18 00:54:38;;;;;;;12.97;7.40;;;;;;;-148.15;100.00;61821.78;5014339;28;20040;-89
2023/10/18 00:57:04;;;;;;;10.57;6.53;;;;;;;-148.15;100.00;61821.78;5018474;28;20309;-89
2023/10/18 00:59:30;;;;;;;10.10;6.35;;;;;;;-148.15;100.00;61821.78;5012542;28;20064;-90
2023/10/18 01:02:13;;;;;;;8.52;6.57;;;;;;;-148.15;100.00;61821.78;5018351;28;20036;-90
2023/10/18 01:04:40;;;;;;;11.77;6.28;;;;;;;-148.15;100.00;61821.78;5014167;28;20030;-90
2023/10/18 01:07:16;;;;;;;12.43;6.55;;;;;;;-148.15;100.00;61821.78;5016322;28;20101;-90
2023/10/18 01:09:53;;;;;;;10.35;6.60;;;;;;;-148.15;100.00;61821.78;5014874;28;20025;-90
2023/10/18 01:12:19;;;;;;;8.97;6.07;;;;;;;-148.15;100.00;61821.78;5011653;28;20088;-90
2023/10/18 02:15:32;;;;;;;10.85;6.88;;;;;;;-148.15;100.00;61821.78;5948713;23;20058;-90
2023/10/18 02:17:58;;;;;;;14.25;6.57;;;;;;;-148.15;100.00;61821.78;4996200;28;20029;-88
2023/10/18 02:20:26;;;;;;;11.70;6.33;;;;;;;-148.15;100.00;61821.78;4993219;28;20030;-89
2023/10/18 02:22:59;;;;;;;8.90;6.50;;;;;;;-148.15;100.00;61821.78;4993256;28;20029;-89
2023/10/18 02:25:44;;;;;;;14.77;6.60;;;;;;;-148.15;100.00;61821.78;4994481;28;20486;-89
2023/10/18 02:28:22;;;;;;;13.15;7.35;;;;;;;-148.15;100.00;61821.78;5111342;22;20519;-89
2023/10/18 02:30:55;;;;;;;11.98;7.05;;;;;;;-148.15;100.00;61821.78;5013194;28;20022;-88
2023/10/18 02:33:23;;;;;;;15.77;7.38;;;;;;;-148.15;100.00;61821.78;5012069;28;20030;-89
2023/10/18 02:35:48;;;;;;;10.57;6.87;;;;;;;-148.15;100.00;61821.78;5002888;28;20026;-89
2023/10/18 02:38:14;;;;;;;12.63;7.30;;;;;;;-148.15;100.00;61821.78;4995290;28;20372;-89
2023/10/18 02:40:39;;;;;;;10.83;6.83;;;;;;;-148.15;100.00;61821.78;5002266;28;20030;-88
2023/10/18 02:43:11;;;;;;;11.60;6.97;;;;;;;-148.15;100.00;61821.78;5007397;28;20034;-89
2023/10/18 02:45:38;;;;;;;11.95;6.82;;;;;;;-148.15;100.00;61821.78;4990557;28;20023;-89
2023/10/18 02:48:13;;;;;;;13.60;6.32;;;;;;;-148.15;100.00;61821.78;4990398;28;20034;-88
2023/10/18 02:50:39;;;;;;;11.93;7.20;;;;;;;-148.15;100.00;61821.78;4993289;28;20212;-89
2023/10/18 02:56:17;;;;;;;12.03;7.33;;;;;;;-148.15;100.00;61821.78;5150105;23;20673;-89
2023/10/18 02:58:43;;;;;;;10.60;6.23;;;;;;;-148.15;100.00;61821.78;5010554;28;20304;-89
2023/10/18 03:01:14;;;;;;;13.65;6.82;;;;;;;-148.15;100.00;61821.78;5011397;28;20120;-89
2023/10/18 03:04:11;;;;;;;12.52;6.55;;;;;;;-148.15;100.00;61821.78;5010604;28;20584;-88
2023/10/18 03:15:19;;;;;;;14.10;6.30;;;;;;;-148.15;100.00;61821.78;5760563;22;20508;-88
2023/10/18 03:17:48;;;;;;;10.52;6.40;;;;;;;-148.15;100.00;61821.78;5088846;22;20516;-88
2023/10/18 03:39:56;;;;;;;11.65;6.75;;;;;;;-148.15;100.00;61821.78;3248852;26;20137;-87
2023/10/18 03:42:35;;;;;;;10.82;6.57;;;;;;;-148.15;100.00;61821.78;5012663;28;20084;-89
2023/10/18 03:45:58;;;;;;;11.43;6.93;;;;;;;-148.15;100.00;61821.78;4994668;28;20043;-88
2023/10/18 03:48:23;;;;;;;8.55;5.65;;;;;;;-148.15;100.00;61821.78;4993193;28;20525;-91
2023/10/18 03:50:48;;;;;;;11.37;7.00;;;;;;;-148.15;100.00;61821.78;5007062;28;20023;-94
2023/10/18 03:53:18;;;;;;;9.63;6.07;;;;;;;-148.15;100.00;61821.78;5229899;23;20315;-96
2023/10/18 03:58:24;;;;;;;13.77;6.20;;;;;;;-148.15;100.00;61821.78;5141724;23;20076;-95
2023/10/18 04:00:56;;;;;;;9.77;6.53;;;;;;;-148.15;100.00;61821.78;5030441;28;20026;-94
2023/10/18 04:03:27;;;;;;;10.13;6.43;;;;;;;-148.15;100.00;61821.78;5013334;28;20884;-92
2023/10/18 04:05:56;;;;;;;10.43;6.45;;;;;;;-148.15;100.00;61821.78;5037518;28;20037;-94
2023/10/18 04:10:58;;;;;;;10.52;6.47;;;;;;;-148.15;100.00;61821.78;5010470;28;20088;-94
2023/10/18 04:13:24;;;;;;;10.57;6.10;;;;;;;-148.15;100.00;61821.78;5028324;28;20095;-94
2023/10/18 04:18:41;;;;;;;8.98;6.30;;;;;;;-148.15;100.00;61821.78;4990732;28;20542;-94
2023/10/18 04:21:12;;;;;;;10.93;6.03;;;;;;;-148.15;100.00;61821.78;4992417;28;20026;-95
2023/10/18 04:27:02;;;;;;;8.30;6.15;;;;;;;-148.15;100.00;61821.78;4978009;28;20129;-96
2023/10/18 04:29:33;;;;;;;8.70;5.43;;;;;;;-148.15;100.00;61821.78;4977479;28;20034;-96
2023/10/18 04:42:06;;;;;;;10.65;6.15;;;;;;;-148.15;100.00;61821.78;5017138;28;20119;-95
2023/10/18 04:44:35;;;;;;;8.85;5.80;;;;;;;-148.15;100.00;61821.78;5016642;28;20154;-94
2023/10/18 04:50:02;;;;;;;7.70;5.18;;;;;;;-148.15;100.00;61821.78;4987901;28;20073;-95
2023/10/18 04:52:40;;;;;;;8.25;5.93;;;;;;;-148.15;100.00;61821.78;4998233;28;20022;-94
2023/10/18 04:55:15;;;;;;;10.15;5.50;;;;;;;-148.15;100.00;61821.78;4978729;28;20044;-95
2023/10/18 04:57:41;;;;;;;9.68;6.25;;;;;;;-148.15;100.00;61821.78;4997829;28;20018;-95
2023/10/18 05:02:53;;;;;;;9.88;5.35;;;;;;;-148.15;100.00;61821.78;5001934;28;20049;-95
2023/10/18 05:05:20;;;;;;;11.47;5.40;;;;;;;-148.15;100.00;61821.78;4993156;28;20014;-95
2023/10/18 05:07:55;;;;;;;9.18;5.57;;;;;;;-148.15;100.00;61821.78;4996914;28;20054;-96
2023/10/18 05:10:21;;;;;;;10.70;5.82;;;;;;;-148.15;100.00;61821.78;5004146;28;20030;-95
2023/10/18 05:13:01;;;;;;;9.98;5.88;;;;;;;-148.15;100.00;61821.78;5009281;28;20034;-95
2023/10/18 05:15:30;;;;;;;10.02;5.90;;;;;;;-148.15;100.00;61821.78;5005333;28;20041;-95
2023/10/18 05:54:12;;;;;;;11.55;5.70;;;;;;;-148.15;100.00;61821.78;5031593;23;20067;-93
2023/10/18 05:59:27;;;;;;;8.23;5.07;;;;;;;-148.15;100.00;61821.78;5013527;28;20065;-94
2023/10/18 06:01:54;;;;;;;7.95;5.88;;;;;;;-148.15;100.00;61821.78;5002290;28;20126;-93
2023/10/18 07:31:32;;;;;;;9.50;5.97;;;;;;;-148.15;100.00;61821.78;5246992;22;20064;-92
2023/10/18 07:34:03;;;;;;;8.25;4.85;;;;;;;-148.15;100.00;61821.78;5035642;28;20060;-92
2023/10/18 07:36:29;;;;;;;9.02;4.75;;;;;;;-148.15;100.00;61821.78;5041825;28;20037;-91
2023/10/18 07:38:57;;;;;;;10.67;5.43;;;;;;;-148.15;100.00;61821.78;5046468;28;20024;-92
2023/10/18 07:41:26;;;;;;;10.90;4.57;;;;;;;-148.15;100.00;61821.78;5043320;28;20029;-90
2023/10/18 07:46:41;;;;;;;9.95;5.13;;;;;;;-148.15;100.00;61821.78;5044503;28;20041;-91
2023/10/18 07:49:12;;;;;;;9.63;4.45;;;;;;;-148.15;100.00;61821.78;5051989;28;20033;-90
2023/10/18 07:51:55;;;;;;;9.35;4.95;;;;;;;-148.15;100.00;61821.78;5042269;28;20045;-88
2023/10/18 07:54:21;;;;;;;8.68;5.50;;;;;;;-148.15;100.00;61821.78;5048402;28;20108;-90
2023/10/18 07:56:49;;;;;;;8.27;5.03;;;;;;;-148.15;100.00;61821.78;5032316;28;20029;-88
2023/10/18 07:59:32;;;;;;;12.02;4.97;;;;;;;-148.15;100.00;61821.78;5036025;28;20035;-90
2023/10/18 08:04:44;;;;;;;7.90;4.40;;;;;;;-148.15;100.00;61821.78;5023284;28;20056;-90
2023/10/18 08:07:15;;;;;;;11.27;5.38;;;;;;;-148.15;100.00;61821.78;5034644;28;20022;-91
2023/10/18 08:09:43;;;;;;;8.90;4.88;;;;;;;-148.15;100.00;61821.78;5028213;28;20045;-90
2023/10/18 08:12:34;;;;;;;7.73;5.13;;;;;;;-148.15;100.00;61821.78;5147045;22;20046;-90
2023/10/18 08:49:06;;;;;;;8.20;4.57;;;;;;;-148.15;100.00;61821.78;5065456;22;20020;-95
2023/10/18 08:51:32;;;;;;;8.98;5.45;;;;;;;-148.15;100.00;61821.78;5034061;28;20033;-95
2023/10/18 08:54:01;;;;;;;10.35;5.30;;;;;;;-148.15;100.00;61821.78;5034128;28;20100;-95
2023/10/18 09:09:35;;;;;;;8.82;5.32;;;;;;;-148.15;100.00;61821.78;5858939;22;20057;-93
2023/10/18 09:12:14;;;;;;;8.85;4.65;;;;;;;-148.15;100.00;61821.78;5042214;28;20068;-96
2023/10/18 09:14:50;;;;;;;10.27;5.10;;;;;;;-148.15;100.00;61821.78;5037601;28;20072;-95
2023/10/18 09:17:22;;;;;;;5.20;4.63;;;;;;;-148.15;100.00;61821.78;5022291;28;20026;-93
2023/10/18 09:19:52;;;;;;;6.50;4.88;;;;;;;-148.15;100.00;61821.78;5037033;28;20019;-91
2023/10/18 09:22:23;;;;;;;9.35;4.63;;;;;;;-148.15;100.00;61821.78;5024376;28;20052;-93
2023/10/18 09:27:30;;;;;;;7.00;4.77;;;;;;;-148.15;100.00;61821.78;4063552;26;20315;-96
2023/10/18 09:30:33;;;;;;;8.20;5.18;;;;;;;-148.15;100.00;61821.78;5027915;28;20082;-95
2023/10/18 09:33:02;;;;;;;6.43;4.78;;;;;;;-148.15;100.00;61821.78;5053200;28;20029;-95
2023/10/18 09:38:08;;;;;;;6.43;5.10;;;;;;;-148.15;100.00;61821.78;5348472;22;20433;-96
2023/10/18 09:40:37;;;;;;;6.78;4.70;;;;;;;-148.15;100.00;61821.78;4998387;28;20466;-94
2023/10/18 09:43:03;;;;;;;7.90;4.97;;;;;;;-148.15;100.00;61821.78;4995374;28;20030;-92
2023/10/18 09:45:28;;;;;;;14.40;5.18;;;;;;;-148.15;100.00;61821.78;4995569;28;20026;-91
2023/10/18 09:47:58;;;;;;;8.53;4.67;;;;;;;-148.15;100.00;61821.78;4987994;28;20513;-95
2023/10/18 09:50:28;;;;;;;6.10;5.07;;;;;;;-148.15;100.00;61821.78;4991769;28;20647;-93
2023/10/18 09:53:00;;;;;;;8.27;5.07;;;;;;;-148.15;100.00;61821.78;4994563;28;20117;-93
2023/10/18 09:55:28;;;;;;;7.28;4.72;;;;;;;-148.15;100.00;61821.78;4998948;28;20106;-91
2023/10/18 09:57:59;;;;;;;13.33;5.03;;;;;;;-148.15;100.00;61821.78;4985322;28;20060;-91
2023/10/18 10:00:30;;;;;;;12.73;4.33;;;;;;;-148.15;100.00;61821.78;4996874;28;20306;-91
2023/10/18 10:02:56;;;;;;;7.15;5.22;;;;;;;-148.15;100.00;61821.78;4995780;28;20023;-91
2023/10/18 10:05:27;;;;;;;6.85;4.55;;;;;;;-148.15;100.00;61821.78;4995075;28;20046;-89
2023/10/18 10:07:56;;;;;;;10.93;4.57;;;;;;;-148.15;100.00;61821.78;4994291;28;20037;-92
2023/10/18 10:10:43;;;;;;;7.00;5.13;;;;;;;-148.15;100.00;61821.78;4999550;28;20098;-96
2023/10/18 10:13:18;;;;;;;5.50;4.43;;;;;;;-148.15;100.00;61821.78;5001784;28;20034;-94
2023/10/18 10:16:03;;;;;;;6.97;4.88;;;;;;;-148.15;100.00;61821.78;5013026;28;20026;-94
2023/10/18 10:18:38;;;;;;;6.70;4.97;;;;;;;-148.15;100.00;61821.78;5200834;22;20106;-93
2023/10/18 10:21:21;;;;;;;8.40;5.00;;;;;;;-148.15;100.00;61821.78;5166723;22;20331;-93
2023/10/18 10:23:55;;;;;;;5.03;4.47;;;;;;;-148.15;100.00;61821.78;5037068;28;20049;-96
2023/10/18 10:26:27;;;;;;;7.15;5.00;;;;;;;-148.15;100.00;61821.78;5045827;28;20026;-94
2023/10/18 10:31:55;;;;;;;7.20;4.95;;;;;;;-148.15;100.00;61821.78;5030520;28;20052;-88
2023/10/18 10:34:27;;;;;;;9.40;4.70;;;;;;;-148.15;100.00;61821.78;5016105;28;20041;-92
2023/10/18 10:37:05;;;;;;;8.65;5.18;;;;;;;-148.15;100.00;61821.78;5026137;28;20057;-90
2023/10/18 10:39:36;;;;;;;10.47;4.93;;;;;;;-148.15;100.00;61821.78;5021287;28;20025;-92
2023/10/18 10:42:27;;;;;;;9.60;5.07;;;;;;;-148.15;100.00;61821.78;5043516;28;20380;-92
2023/10/18 10:44:57;;;;;;;6.65;4.80;;;;;;;-148.15;100.00;61821.78;5021968;28;20033;-89
2023/10/18 10:47:29;;;;;;;7.85;5.40;;;;;;;-148.15;100.00;61821.78;5039924;28;20094;-89
2023/10/18 10:50:07;;;;;;;5.72;4.55;;;;;;;-148.15;100.00;61821.78;5043207;28;20046;-88
2023/10/18 10:52:40;;;;;;;7.05;5.10;;;;;;;-148.15;100.00;61821.78;5042809;28;20026;-91
2023/10/18 11:03:55;;;;;;;6.47;5.63;;;;;;;-148.15;100.00;61821.78;5175200;22;20064;-94
2023/10/18 11:06:50;;;;;;;7.73;5.10;;;;;;;-148.15;100.00;61821.78;5038172;28;20296;-95
2023/10/18 11:09:16;;;;;;;10.38;5.00;;;;;;;-148.15;100.00;61821.78;5010099;28;20061;-92
2023/10/18 11:14:42;;;;;;;7.90;4.70;;;;;;;-148.15;100.00;61821.78;5025161;28;20061;-92
2023/10/18 11:17:18;;;;;;;10.07;4.82;;;;;;;-148.15;100.00;61821.78;5024257;28;20030;-94
2023/10/18 11:20:30;;;;;;;7.82;4.50;;;;;;;-148.15;100.00;61821.78;5034427;28;20060;-93
2023/10/18 11:23:00;;;;;;;6.47;4.72;;;;;;;-148.15;100.00;61821.78;5018507;28;20077;-94
2023/10/18 11:25:56;;;;;;;8.83;4.50;;;;;;;-148.15;100.00;61821.78;5022511;28;20018;-93
2023/10/18 11:28:29;;;;;;;7.07;4.60;;;;;;;-148.15;100.00;61821.78;5036393;28;20292;-91
2023/10/18 11:31:04;;;;;;;8.23;4.47;;;;;;;-148.15;100.00;61821.78;5050881;28;20021;-94
2023/10/18 11:36:30;;;;;;;6.47;4.95;;;;;;;-148.15;100.00;61821.78;5034487;28;20045;-94
2023/10/18 11:39:23;;;;;;;6.10;4.45;;;;;;;-148.15;100.00;61821.78;5027171;28;20015;-93
2023/10/18 11:42:06;;;;;;;8.73;4.30;;;;;;;-148.15;100.00;61821.78;5022274;28;20045;-93
2023/10/18 11:44:34;;;;;;;6.95;4.90;;;;;;;-148.15;100.00;61821.78;5037499;28;20030;-93
2023/10/18 11:47:01;;;;;;;5.95;4.15;;;;;;;-148.15;100.00;61821.78;5037344;28;20085;-93
2023/10/18 11:49:42;;;;;;;6.77;4.33;;;;;;;-148.15;100.00;61821.78;5026777;28;20030;-92
2023/10/18 11:52:25;;;;;;;11.37;5.03;;;;;;;-148.15;100.00;61821.78;5028004;28;20356;-93
2023/10/18 11:55:11;;;;;;;12.18;4.35;;;;;;;-148.15;100.00;61821.78;5022307;28;20086;-94
2023/10/18 11:58:25;;;;;;;9.60;4.93;;;;;;;-148.15;100.00;61821.78;5017652;28;20014;-94
2023/10/18 12:01:00;;;;;;;7.00;4.13;;;;;;;-148.15;100.00;61821.78;5018673;28;20047;-93
2023/10/18 12:03:50;;;;;;;7.35;4.65;;;;;;;-148.15;100.00;61821.78;5034941;28;20129;-94
2023/10/18 12:06:34;;;;;;;6.03;4.20;;;;;;;-148.15;100.00;61821.78;5034871;28;20077;-93
2023/10/18 12:09:26;;;;;;;5.78;4.10;;;;;;;-148.15;100.00;61821.78;5036057;28;20106;-93
2023/10/18 12:12:05;;;;;;;7.30;4.27;;;;;;;-148.15;100.00;61821.78;5037351;28;20054;-92
2023/10/18 12:19:45;;;;;;;5.35;3.83;;;;;;;-148.15;100.00;61821.78;3312292;22;20050;-94
2023/10/18 12:22:15;;;;;;;7.60;3.85;;;;;;;-148.15;100.00;61821.78;5035011;28;20030;-92
2023/10/18 12:24:41;;;;;;;6.63;4.38;;;;;;;-148.15;100.00;61821.78;5023791;28;20033;-93
2023/10/18 12:27:52;;;;;;;5.78;4.20;;;;;;;-148.15;100.00;61821.78;5017598;28;20030;-93
2023/10/18 12:29:59;;;;;;;6.30;4.05;;;;;;;-148.15;100.00;61821.78;5201962;23;20105;-95
2023/10/18 12:32:42;;;;;;;5.77;3.97;;;;;;;-148.15;100.00;61821.78;5016602;28;20069;-94
2023/10/18 12:35:38;;;;;;;6.80;3.80;;;;;;;-148.15;100.00;61821.78;4995649;28;20293;-93
2023/10/18 12:38:15;;;;;;;4.65;4.15;;;;;;;-148.15;100.00;61821.78;4981978;28;20011;-94
2023/10/18 12:40:58;;;;;;;9.30;4.15;;;;;;;-148.15;100.00;61821.78;4983020;28;20139;-93
2023/10/18 12:43:44;;;;;;;6.70;3.90;;;;;;;-148.15;100.00;61821.78;5169092;23;20057;-92
2023/10/18 12:46:23;;;;;;;6.47;4.57;;;;;;;-148.15;100.00;61821.78;5033749;28;20038;-91
2023/10/18 12:48:52;;;;;;;8.40;4.70;;;;;;;-148.15;100.00;61821.78;5018552;28;20022;-92
2023/10/18 12:51:18;;;;;;;7.23;4.37;;;;;;;-148.15;100.00;61821.78;5019822;28;20785;-94
2023/10/18 12:54:10;;;;;;;6.72;4.50;;;;;;;-148.15;100.00;61821.78;5025020;28;20026;-94
2023/10/18 13:05:41;;;;;;;10.45;5.20;;;;;;;-148.15;100.00;61821.78;5034215;28;20056;-92
2023/10/18 13:08:26;;;;;;;9.00;4.93;;;;;;;-148.15;100.00;61821.78;5026963;28;20025;-92
2023/10/18 13:11:44;;;;;;;12.40;5.47;;;;;;;-148.15;100.00;61821.78;5011038;28;20048;-90
2023/10/18 13:13:45;;;;;;;9.43;5.70;;;;;;;-148.15;100.00;61821.78;5016773;28;20038;-90
2023/10/18 13:16:15;;;;;;;6.65;4.32;;;;;;;-148.15;100.00;61821.78;5020516;28;20538;-88
2023/10/18 13:18:48;;;;;;;17.33;5.80;;;;;;;-148.15;100.00;61821.78;5042662;28;20062;-90
2023/10/18 13:21:20;;;;;;;11.90;5.18;;;;;;;-148.15;100.00;61821.78;5029743;28;20033;-90
2023/10/18 13:23:47;;;;;;;11.53;5.13;;;;;;;-148.15;100.00;61821.78;5006025;28;20188;-89
2023/10/18 13:26:19;;;;;;;10.50;4.10;;;;;;;-148.15;100.00;61821.78;5012808;28;20297;-90
2023/10/18 13:31:18;;;;;;;10.77;4.72;;;;;;;-148.15;100.00;61821.78;5007566;28;20042;-89
2023/10/18 13:33:44;;;;;;;6.80;4.07;;;;;;;-148.15;100.00;61821.78;5008132;28;20259;-89
2023/10/18 13:36:09;;;;;;;8.83;4.70;;;;;;;-148.15;100.00;61821.78;5006028;28;20021;-90
2023/10/18 13:38:36;;;;;;;6.38;4.00;;;;;;;-148.15;100.00;61821.78;5003650;28;20073;-89
2023/10/18 13:41:01;;;;;;;6.38;3.88;;;;;;;-148.15;100.00;61821.78;5002053;28;20037;-88
2023/10/18 13:43:28;;;;;;;10.00;4.10;;;;;;;-148.15;100.00;61821.78;5008225;28;20026;-90
2023/10/18 13:45:57;;;;;;;9.55;3.53;;;;;;;-148.15;100.00;61821.78;4995997;28;20066;-91
2023/10/18 13:48:24;;;;;;;4.80;3.27;;;;;;;-148.15;100.00;61821.78;5006217;28;20038;-89
2023/10/18 13:50:53;;;;;;;7.77;3.93;;;;;;;-148.15;100.00;61821.78;5009233;28;20301;-88
2023/10/18 13:53:21;;;;;;;4.78;3.70;;;;;;;-148.15;100.00;61821.78;5007578;28;20022;-91
2023/10/18 13:55:46;;;;;;;8.77;3.22;;;;;;;-148.15;100.00;61821.78;5007290;28;20022;-89
2023/10/18 13:58:11;;;;;;;5.03;3.20;;;;;;;-148.15;100.00;61821.78;5014061;28;20036;-87
2023/10/18 14:00:40;;;;;;;6.30;3.50;;;;;;;-148.15;100.00;61821.78;5016201;28;20026;-90
2023/10/18 14:03:07;;;;;;;7.87;3.30;;;;;;;-148.15;100.00;61821.78;5012451;28;20030;-87
2023/10/18 14:05:39;;;;;;;4.47;2.75;;;;;;;-148.15;100.00;61821.78;5009247;28;20488;-87
2023/10/18 14:08:07;;;;;;;4.65;3.00;;;;;;;-148.15;100.00;61821.78;5005905;28;20029;-89
2023/10/18 14:10:36;;;;;;;9.40;2.92;;;;;;;-148.15;100.00;61821.78;5001475;28;20379;-87
2023/10/18 14:13:06;;;;;;;5.15;2.55;;;;;;;-148.15;100.00;61821.78;4996675;28;20417;-88
2023/10/18 14:15:39;;;;;;;5.07;2.90;;;;;;;-148.15;100.00;61821.78;4999768;28;20060;-86
2023/10/18 14:18:06;;;;;;;3.80;2.80;;;;;;;-148.15;100.00;61821.78;5001030;28;20108;-87
2023/10/18 14:20:37;;;;;;;5.90;2.67;;;;;;;-148.15;100.00;61821.78;5002597;28;20289;-86
2023/10/18 14:23:10;;;;;;;7.80;2.88;;;;;;;-148.15;100.00;61821.78;5010579;28;20056;-86
2023/10/18 14:25:38;;;;;;;5.93;2.72;;;;;;;-148.15;100.00;61821.78;5006203;28;20026;-84
2023/10/18 14:28:04;;;;;;;4.72;2.88;;;;;;;-148.15;100.00;61821.78;4989050;28;20562;-85
2023/10/18 14:30:34;;;;;;;4.32;2.47;;;;;;;-148.15;100.00;61821.78;5009201;28;20032;-83
2023/10/18 14:32:59;;;;;;;3.40;2.80;;;;;;;-148.15;100.00;61821.78;5002181;28;20113;-91
2023/10/18 14:35:25;;;;;;;5.60;2.67;;;;;;;-148.15;100.00;61821.78;5017225;28;20026;-90
2023/10/18 14:37:52;;;;;;;6.35;3.28;;;;;;;-148.15;100.00;61821.78;5014887;28;20381;-92
2023/10/18 14:40:23;;;;;;;6.28;2.65;;;;;;;-148.15;100.00;61821.78;5014535;28;20029;-91
2023/10/18 14:42:50;;;;;;;4.73;2.87;;;;;;;-148.15;100.00;61821.78;5020223;28;20122;-91
2023/10/18 14:45:16;;;;;;;5.10;2.85;;;;;;;-148.15;100.00;61821.78;5009250;28;20045;-91
2023/10/18 14:47:41;;;;;;;4.60;2.80;;;;;;;-148.15;100.00;61821.78;5015742;28;20125;-91
2023/10/18 14:50:07;;;;;;;6.50;2.50;;;;;;;-148.15;100.00;61821.78;5010527;28;20041;-92
2023/10/18 14:52:32;;;;;;;5.72;2.90;;;;;;;-148.15;100.00;61821.78;5010299;28;20404;-95
2023/10/18 14:55:00;;;;;;;4.30;2.60;;;;;;;-148.15;100.00;61821.78;5005875;28;20033;-90
2023/10/18 14:57:26;;;;;;;4.22;2.70;;;;;;;-148.15;100.00;61821.78;5013695;28;20092;-91
2023/10/18 14:59:51;;;;;;;6.37;2.43;;;;;;;-148.15;100.00;61821.78;5001711;28;22341;-89
2023/10/18 15:02:17;;;;;;;3.43;2.07;;;;;;;-148.15;100.00;61821.78;5015890;28;20025;-92
2023/10/18 15:04:46;;;;;;;5.78;2.30;;;;;;;-148.15;100.00;61821.78;5012063;28;20040;-90
2023/10/18 15:07:16;;;;;;;5.13;2.30;;;;;;;-148.15;100.00;61821.78;5008123;28;20516;-92
2023/10/18 15:09:42;;;;;;;3.80;2.23;;;;;;;-148.15;100.00;61821.78;5011965;28;20089;-92
2023/10/18 15:12:08;;;;;;;3.37;2.53;;;;;;;-148.15;100.00;61821.78;5018939;28;20313;-94
2023/10/18 15:14:33;;;;;;;4.50;2.30;;;;;;;-148.15;100.00;61821.78;5017696;28;20026;-89
2023/10/18 15:16:59;;;;;;;3.75;2.40;;;;;;;-148.15;100.00;61821.78;5026023;28;20026;-95
2023/10/18 15:19:27;;;;;;;4.75;2.20;;;;;;;-148.15;100.00;61821.78;5019530;28;20030;-94
2023/10/18 15:21:58;;;;;;;7.37;2.57;;;;;;;-148.15;100.00;61821.78;5001934;28;20033;-88
2023/10/18 15:24:27;;;;;;;4.07;2.30;;;;;;;-148.15;100.00;61821.78;5024925;28;20014;-95
2023/10/18 15:26:59;;;;;;;4.38;2.08;;;;;;;-148.15;100.00;61821.78;5016771;28;20033;-96
2023/10/18 15:29:27;;;;;;;3.63;2.10;;;;;;;-148.15;100.00;61821.78;5028213;28;20047;-96
2023/10/18 15:34:18;;;;;;;3.53;1.85;;;;;;;-148.15;100.00;61821.78;5367000;22;20057;-91
2023/10/18 15:36:47;;;;;;;7.30;2.15;;;;;;;-148.15;100.00;61821.78;5022219;28;20033;-93
2023/10/18 15:39:17;;;;;;;7.18;2.30;;;;;;;-148.15;100.00;61821.78;5017064;28;20026;-95
2023/10/18 15:46:38;;;;;;;3.53;2.20;;;;;;;-148.15;100.00;61821.78;4970014;28;20042;-89
2023/10/18 15:49:04;;;;;;;2.20;2.00;;;;;;;-148.15;100.00;61821.78;4962516;28;20031;-89
2023/10/18 15:51:32;;;;;;;5.43;2.00;;;;;;;-148.15;100.00;61821.78;4961921;28;20286;-89
2023/10/18 15:53:58;;;;;;;4.13;1.98;;;;;;;-148.15;100.00;61821.78;4951525;28;20130;-89
2023/10/18 15:56:24;;;;;;;2.97;2.00;;;;;;;-148.15;100.00;61821.78;4965008;28;20159;-91
2023/10/18 15:58:53;;;;;;;12.93;6.57;;;;;;;-148.15;100.00;61821.78;4954033;28;20023;-91
2023/10/18 16:01:20;;;;;;;8.38;4.47;;;;;;;-148.15;100.00;61821.78;4953938;28;20030;-90
2023/10/18 16:03:49;;;;;;;4.60;2.85;;;;;;;-148.15;100.00;61821.78;4956965;28;20494;-88
2023/10/18 16:06:16;;;;;;;2.93;1.80;;;;;;;-148.15;100.00;61821.78;4949776;28;20118;-94
2023/10/18 16:08:43;;;;;;;3.10;1.90;;;;;;;-148.15;100.00;61821.78;4954768;28;20306;-91
2023/10/18 16:11:09;;;;;;;3.78;2.13;;;;;;;-148.15;100.00;61821.78;4960904;28;20036;-93
2023/10/18 16:13:38;;;;;;;3.10;1.83;;;;;;;-148.15;100.00;61821.78;4960025;28;20017;-94
2023/10/18 16:16:05;;;;;;;3.63;2.15;;;;;;;-148.15;100.00;61821.78;4965900;28;20042;-95
2023/10/18 16:18:36;;;;;;;4.22;2.08;;;;;;;-148.15;100.00;61821.78;4958851;28;20030;-95
2023/10/18 16:21:03;;;;;;;5.13;2.00;;;;;;;-148.15;100.00;61821.78;4962363;28;20031;-91
2023/10/18 16:23:29;;;;;;;2.43;1.53;;;;;;;-148.15;100.00;61821.78;4957340;28;20031;-93
2023/10/18 16:25:54;;;;;;;5.20;2.00;;;;;;;-148.15;100.00;61821.78;4957611;28;20390;-91
2023/10/18 16:28:20;;;;;;;4.32;1.90;;;;;;;-148.15;100.00;61821.78;4948344;29;20050;-93
2023/10/18 16:30:47;;;;;;;7.40;2.03;;;;;;;-148.15;100.00;61821.78;4966973;28;20065;-96
2023/10/18 16:35:55;;;;;;;7.10;1.60;;;;;;;-148.15;100.00;61821.78;5358706;23;20049;-92
2023/10/18 16:38:20;;;;;;;3.47;1.88;;;;;;;-148.15;100.00;61821.78;5019330;28;20041;-96
2023/10/18 16:40:45;;;;;;;4.20;1.77;;;;;;;-148.15;100.00;61821.78;5029176;28;20022;-91
2023/10/18 16:43:11;;;;;;;4.67;1.90;;;;;;;-148.15;100.00;61821.78;4996563;28;20053;-89
2023/10/18 16:45:40;;;;;;;5.00;2.23;;;;;;;-148.15;100.00;61821.78;4987424;28;20152;-93
2023/10/18 16:48:06;;;;;;;2.73;1.63;;;;;;;-148.15;100.00;61821.78;4991286;28;20348;-91
2023/10/18 16:50:32;;;;;;;3.08;1.80;;;;;;;-148.15;100.00;61821.78;4989167;28;20033;-92
2023/10/18 16:52:58;;;;;;;6.37;2.30;;;;;;;-148.15;100.00;61821.78;4983376;28;20042;-94
2023/10/18 16:55:23;;;;;;;4.00;2.10;;;;;;;-148.15;100.00;61821.78;4995771;28;20375;-89
2023/10/18 16:57:50;;;;;;;4.97;1.85;;;;;;;-148.15;100.00;61821.78;4996273;28;20117;-91
2023/10/18 17:00:16;;;;;;;4.37;1.93;;;;;;;-148.15;100.00;61821.78;4997744;28;20023;-90
2023/10/18 17:02:42;;;;;;;3.10;2.10;;;;;;;-148.15;100.00;61821.78;4991746;28;20030;-90
2023/10/18 17:05:15;;;;;;;7.65;1.73;;;;;;;-148.15;100.00;61821.78;4991827;28;20410;-92
2023/10/18 17:07:46;;;;;;;2.92;2.08;;;;;;;-148.15;100.00;61821.78;5003035;28;20030;-90
2023/10/18 17:10:17;;;;;;;4.32;2.20;;;;;;;-148.15;100.00;61821.78;4988841;28;20038;-87
2023/10/18 17:12:45;;;;;;;3.23;2.30;;;;;;;-148.15;100.00;61821.78;4971283;28;20038;-91
2023/10/18 17:15:12;;;;;;;4.00;2.37;;;;;;;-148.15;100.00;61821.78;4982520;28;20281;-91